sensor_id;sensor_type;location;lat;lon;timestamp;temperature;humidity
8633;DHT22;4354;49.832;10.746;2022-09-09T00:00:24;11.00;99.90
8633;DHT22;4354;49.832;10.746;2022-09-09T00:03:10;11.00;99.90
8633;DHT22;4354;49.832;10.746;2022-09-09T00:05:47;11.00;99.90
8633;DHT22;4354;49.832;10.746;2022-09-09T00:08:27;11.00;99.90
8633;DHT22;4354;49.832;10.746;2022-09-09T00:11:01;11.00;99.90
8633;DHT22;4354;49.832;10.746;2022-09-09T00:13:38;11.00;99.90
8633;DHT22;4354;49.832;10.746;2022-09-09T00:16:22;11.20;99.90
8633;DHT22;4354;49.832;10.746;2022-09-09T00:22:36;11.40;99.90
8633;DHT22;4354;49.832;10.746;2022-09-09T00:24:52;11.40;99.90
8633;DHT22;4354;49.832;10.746;2022-09-09T00:27:31;11.50;99.90
8633;DHT22;4354;49.832;10.746;2022-09-09T00:32:30;11.50;99.90
8633;DHT22;4354;49.832;10.746;2022-09-09T00:35:16;11.50;99.90
8633;DHT22;4354;49.832;10.746;2022-09-09T00:37:46;11.60;99.90
8633;DHT22;4354;49.832;10.746;2022-09-09T00:40:31;11.60;99.90
8633;DHT22;4354;49.832;10.746;2022-09-09T00:46:14;11.80;99.90
8633;DHT22;4354;49.832;10.746;2022-09-09T00:57:13;11.40;99.90
8633;DHT22;4354;49.832;10.746;2022-09-09T00:59:46;11.40;99.90
8633;DHT22;4354;49.832;10.746;2022-09-09T01:04:45;11.40;99.90
8633;DHT22;4354;49.832;10.746;2022-09-09T01:07:19;11.30;99.90
8633;DHT22;4354;49.832;10.746;2022-09-09T01:10:15;11.20;99.90
8633;DHT22;4354;49.832;10.746;2022-09-09T01:12:48;11.10;99.90
8633;DHT22;4354;49.832;10.746;2022-09-09T01:15:22;11.10;99.90
8633;DHT22;4354;49.832;10.746;2022-09-09T01:18:01;11.10;99.90
8633;DHT22;4354;49.832;10.746;2022-09-09T01:20:42;11.00;99.90
8633;DHT22;4354;49.832;10.746;2022-09-09T01:28:53;10.90;99.90
8633;DHT22;4354;49.832;10.746;2022-09-09T01:31:32;10.90;99.90
8633;DHT22;4354;49.832;10.746;2022-09-09T01:34:01;10.80;99.90
8633;DHT22;4354;49.832;10.746;2022-09-09T01:36:34;10.70;99.90
8633;DHT22;4354;49.832;10.746;2022-09-09T01:39:04;10.70;99.90
8633;DHT22;4354;49.832;10.746;2022-09-09T01:41:31;10.70;99.90
8633;DHT22;4354;49.832;10.746;2022-09-09T01:43:58;10.80;99.90
8633;DHT22;4354;49.832;10.746;2022-09-09T01:46:25;10.90;99.90
8633;DHT22;4354;49.832;10.746;2022-09-09T01:48:55;10.90;99.90
8633;DHT22;4354;49.832;10.746;2022-09-09T01:51:22;11.00;99.90
8633;DHT22;4354;49.832;10.746;2022-09-09T01:53:50;11.10;99.90
8633;DHT22;4354;49.832;10.746;2022-09-09T01:56:36;11.20;99.90
8633;DHT22;4354;49.832;10.746;2022-09-09T02:10:20;11.50;99.90
8633;DHT22;4354;49.832;10.746;2022-09-09T02:12:55;11.50;99.90
8633;DHT22;4354;49.832;10.746;2022-09-09T02:15:30;11.50;99.90
8633;DHT22;4354;49.832;10.746;2022-09-09T02:18:00;11.50;99.90
8633;DHT22;4354;49.832;10.746;2022-09-09T02:20:31;11.50;99.90
8633;DHT22;4354;49.832;10.746;2022-09-09T02:23:01;11.50;99.90
8633;DHT22;4354;49.832;10.746;2022-09-09T02:25:29;11.50;99.90
8633;DHT22;4354;49.832;10.746;2022-09-09T02:27:56;11.50;99.90
8633;DHT22;4354;49.832;10.746;2022-09-09T02:30:29;11.50;99.90
8633;DHT22;4354;49.832;10.746;2022-09-09T02:32:58;11.60;99.90
8633;DHT22;4354;49.832;10.746;2022-09-09T02:35:27;11.60;99.90
8633;DHT22;4354;49.832;10.746;2022-09-09T02:37:59;11.70;99.90
8633;DHT22;4354;49.832;10.746;2022-09-09T02:40:28;11.70;99.90
8633;DHT22;4354;49.832;10.746;2022-09-09T02:42:55;11.70;99.90
8633;DHT22;4354;49.832;10.746;2022-09-09T02:45:25;11.80;99.90
8633;DHT22;4354;49.832;10.746;2022-09-09T02:50:30;11.90;99.90
8633;DHT22;4354;49.832;10.746;2022-09-09T02:53:17;11.90;99.90
8633;DHT22;4354;49.832;10.746;2022-09-09T02:55:48;11.90;99.90
8633;DHT22;4354;49.832;10.746;2022-09-09T02:58:17;11.90;99.90
8633;DHT22;4354;49.832;10.746;2022-09-09T03:00:49;12.00;99.90
8633;DHT22;4354;49.832;10.746;2022-09-09T03:03:18;12.10;99.90
8633;DHT22;4354;49.832;10.746;2022-09-09T03:05:46;12.20;99.90
8633;DHT22;4354;49.832;10.746;2022-09-09T03:08:13;12.40;99.90
8633;DHT22;4354;49.832;10.746;2022-09-09T03:10:40;12.50;99.90
8633;DHT22;4354;49.832;10.746;2022-09-09T03:13:07;12.50;99.90
8633;DHT22;4354;49.832;10.746;2022-09-09T03:15:35;12.60;99.90
8633;DHT22;4354;49.832;10.746;2022-09-09T03:18:02;12.60;99.90
8633;DHT22;4354;49.832;10.746;2022-09-09T03:20:29;12.70;99.90
8633;DHT22;4354;49.832;10.746;2022-09-09T03:22:57;12.70;99.90
8633;DHT22;4354;49.832;10.746;2022-09-09T03:25:24;12.80;99.90
8633;DHT22;4354;49.832;10.746;2022-09-09T03:27:52;12.80;99.90
8633;DHT22;4354;49.832;10.746;2022-09-09T03:30:22;12.90;99.90
8633;DHT22;4354;49.832;10.746;2022-09-09T03:32:49;12.90;99.90
8633;DHT22;4354;49.832;10.746;2022-09-09T03:35:16;13.00;99.90
8633;DHT22;4354;49.832;10.746;2022-09-09T03:37:43;13.00;99.90
8633;DHT22;4354;49.832;10.746;2022-09-09T03:40:10;13.10;99.90
8633;DHT22;4354;49.832;10.746;2022-09-09T03:42:38;13.10;99.90
8633;DHT22;4354;49.832;10.746;2022-09-09T03:45:06;13.20;99.90
8633;DHT22;4354;49.832;10.746;2022-09-09T03:47:35;13.20;99.90
8633;DHT22;4354;49.832;10.746;2022-09-09T03:50:03;13.20;99.90
8633;DHT22;4354;49.832;10.746;2022-09-09T03:52:31;13.20;99.90
8633;DHT22;4354;49.832;10.746;2022-09-09T03:54:58;13.30;99.90
8633;DHT22;4354;49.832;10.746;2022-09-09T03:57:24;13.30;99.90
8633;DHT22;4354;49.832;10.746;2022-09-09T03:59:51;13.30;99.90
8633;DHT22;4354;49.832;10.746;2022-09-09T04:02:18;13.30;99.90
8633;DHT22;4354;49.832;10.746;2022-09-09T04:04:45;13.30;99.90
8633;DHT22;4354;49.832;10.746;2022-09-09T04:07:12;13.30;99.90
8633;DHT22;4354;49.832;10.746;2022-09-09T04:09:39;13.30;99.90
8633;DHT22;4354;49.832;10.746;2022-09-09T04:12:06;13.20;99.90
8633;DHT22;4354;49.832;10.746;2022-09-09T04:14:33;13.20;99.90
8633;DHT22;4354;49.832;10.746;2022-09-09T04:17:00;13.20;99.90
8633;DHT22;4354;49.832;10.746;2022-09-09T04:19:26;13.20;99.90
8633;DHT22;4354;49.832;10.746;2022-09-09T04:21:53;13.30;99.90
8633;DHT22;4354;49.832;10.746;2022-09-09T04:24:20;13.30;99.90
8633;DHT22;4354;49.832;10.746;2022-09-09T04:26:48;13.30;99.90
8633;DHT22;4354;49.832;10.746;2022-09-09T04:29:14;13.30;99.90
8633;DHT22;4354;49.832;10.746;2022-09-09T04:31:41;13.40;99.90
8633;DHT22;4354;49.832;10.746;2022-09-09T04:34:09;13.40;99.90
8633;DHT22;4354;49.832;10.746;2022-09-09T04:36:36;13.40;99.90
8633;DHT22;4354;49.832;10.746;2022-09-09T04:39:03;13.40;99.90
8633;DHT22;4354;49.832;10.746;2022-09-09T04:41:29;13.40;99.90
8633;DHT22;4354;49.832;10.746;2022-09-09T04:43:58;13.50;99.90
8633;DHT22;4354;49.832;10.746;2022-09-09T04:46:26;13.40;99.90
8633;DHT22;4354;49.832;10.746;2022-09-09T04:48:53;13.40;99.90
8633;DHT22;4354;49.832;10.746;2022-09-09T04:51:20;13.30;99.90
8633;DHT22;4354;49.832;10.746;2022-09-09T04:53:47;13.30;99.90
8633;DHT22;4354;49.832;10.746;2022-09-09T04:56:16;13.30;99.90
8633;DHT22;4354;49.832;10.746;2022-09-09T04:58:43;13.30;99.90
8633;DHT22;4354;49.832;10.746;2022-09-09T05:03:39;13.40;99.90
8633;DHT22;4354;49.832;10.746;2022-09-09T05:06:14;13.40;99.90
8633;DHT22;4354;49.832;10.746;2022-09-09T05:08:43;13.40;99.90
8633;DHT22;4354;49.832;10.746;2022-09-09T05:11:27;13.50;99.90
8633;DHT22;4354;49.832;10.746;2022-09-09T05:13:54;13.50;99.90
8633;DHT22;4354;49.832;10.746;2022-09-09T05:16:21;13.60;99.90
8633;DHT22;4354;49.832;10.746;2022-09-09T05:18:49;13.60;99.90
8633;DHT22;4354;49.832;10.746;2022-09-09T05:21:19;13.60;99.90
8633;DHT22;4354;49.832;10.746;2022-09-09T05:23:46;13.70;99.90
8633;DHT22;4354;49.832;10.746;2022-09-09T05:26:16;13.70;99.90
8633;DHT22;4354;49.832;10.746;2022-09-09T05:28:44;13.70;99.90
8633;DHT22;4354;49.832;10.746;2022-09-09T05:31:12;13.70;99.90
8633;DHT22;4354;49.832;10.746;2022-09-09T05:33:41;13.70;99.90
8633;DHT22;4354;49.832;10.746;2022-09-09T05:36:14;13.80;99.90
8633;DHT22;4354;49.832;10.746;2022-09-09T05:38:42;13.90;99.90
8633;DHT22;4354;49.832;10.746;2022-09-09T05:41:10;13.90;99.90
8633;DHT22;4354;49.832;10.746;2022-09-09T05:43:38;14.00;99.90
8633;DHT22;4354;49.832;10.746;2022-09-09T05:46:07;14.00;99.90
8633;DHT22;4354;49.832;10.746;2022-09-09T05:48:36;14.00;99.90
8633;DHT22;4354;49.832;10.746;2022-09-09T05:51:06;14.10;99.90
8633;DHT22;4354;49.832;10.746;2022-09-09T05:53:33;14.10;99.90
8633;DHT22;4354;49.832;10.746;2022-09-09T05:56:09;14.10;99.90
8633;DHT22;4354;49.832;10.746;2022-09-09T05:58:45;14.20;99.90
8633;DHT22;4354;49.832;10.746;2022-09-09T06:01:18;14.20;99.90
8633;DHT22;4354;49.832;10.746;2022-09-09T06:03:46;14.20;99.90
8633;DHT22;4354;49.832;10.746;2022-09-09T06:06:16;14.20;99.90
8633;DHT22;4354;49.832;10.746;2022-09-09T06:08:44;14.20;99.90
8633;DHT22;4354;49.832;10.746;2022-09-09T06:11:14;14.20;99.90
8633;DHT22;4354;49.832;10.746;2022-09-09T06:13:42;14.10;99.90
8633;DHT22;4354;49.832;10.746;2022-09-09T06:16:14;14.20;99.90
8633;DHT22;4354;49.832;10.746;2022-09-09T06:18:42;14.30;99.90
8633;DHT22;4354;49.832;10.746;2022-09-09T06:21:30;14.50;99.90
8633;DHT22;4354;49.832;10.746;2022-09-09T06:23:58;14.70;99.90
8633;DHT22;4354;49.832;10.746;2022-09-09T06:26:32;15.00;99.90
8633;DHT22;4354;49.832;10.746;2022-09-09T06:29:00;15.20;99.90
8633;DHT22;4354;49.832;10.746;2022-09-09T06:31:28;15.30;99.90
8633;DHT22;4354;49.832;10.746;2022-09-09T06:33:58;15.50;99.90
8633;DHT22;4354;49.832;10.746;2022-09-09T06:36:30;15.60;99.90
8633;DHT22;4354;49.832;10.746;2022-09-09T06:38:58;15.70;99.90
8633;DHT22;4354;49.832;10.746;2022-09-09T06:41:27;15.80;99.90
8633;DHT22;4354;49.832;10.746;2022-09-09T06:43:54;16.00;99.90
8633;DHT22;4354;49.832;10.746;2022-09-09T06:46:27;16.10;99.90
8633;DHT22;4354;49.832;10.746;2022-09-09T06:48:55;16.20;99.90
8633;DHT22;4354;49.832;10.746;2022-09-09T06:51:25;16.30;99.90
8633;DHT22;4354;49.832;10.746;2022-09-09T06:53:55;16.40;99.90
8633;DHT22;4354;49.832;10.746;2022-09-09T06:58:51;16.70;99.90
8633;DHT22;4354;49.832;10.746;2022-09-09T07:01:24;17.00;99.90
8633;DHT22;4354;49.832;10.746;2022-09-09T07:03:53;17.20;99.90
8633;DHT22;4354;49.832;10.746;2022-09-09T07:06:29;17.50;99.90
8633;DHT22;4354;49.832;10.746;2022-09-09T07:08:58;17.70;99.90
8633;DHT22;4354;49.832;10.746;2022-09-09T07:11:28;17.90;99.90
8633;DHT22;4354;49.832;10.746;2022-09-09T07:13:57;17.90;99.90
8633;DHT22;4354;49.832;10.746;2022-09-09T07:16:24;17.90;99.90
8633;DHT22;4354;49.832;10.746;2022-09-09T07:18:52;17.90;99.90
8633;DHT22;4354;49.832;10.746;2022-09-09T07:21:19;18.10;99.90
8633;DHT22;4354;49.832;10.746;2022-09-09T07:23:47;18.10;99.90
8633;DHT22;4354;49.832;10.746;2022-09-09T07:26:18;18.30;99.90
8633;DHT22;4354;49.832;10.746;2022-09-09T07:28:48;18.40;99.90
8633;DHT22;4354;49.832;10.746;2022-09-09T07:31:20;18.70;99.90
8633;DHT22;4354;49.832;10.746;2022-09-09T07:33:48;18.70;99.90
8633;DHT22;4354;49.832;10.746;2022-09-09T07:36:17;18.70;99.90
8633;DHT22;4354;49.832;10.746;2022-09-09T07:38:46;18.80;99.90
8633;DHT22;4354;49.832;10.746;2022-09-09T07:41:17;19.10;99.90
8633;DHT22;4354;49.832;10.746;2022-09-09T07:43:46;19.20;99.90
8633;DHT22;4354;49.832;10.746;2022-09-09T07:46:15;19.30;99.90
8633;DHT22;4354;49.832;10.746;2022-09-09T07:48:54;19.70;99.90
8633;DHT22;4354;49.832;10.746;2022-09-09T07:51:42;20.10;99.90
8633;DHT22;4354;49.832;10.746;2022-09-09T07:54:12;20.80;99.90
8633;DHT22;4354;49.832;10.746;2022-09-09T07:56:40;21.60;99.90
8633;DHT22;4354;49.832;10.746;2022-09-09T07:59:08;22.00;99.90
8633;DHT22;4354;49.832;10.746;2022-09-09T08:01:44;21.10;99.90
8633;DHT22;4354;49.832;10.746;2022-09-09T08:04:15;21.00;99.90
8633;DHT22;4354;49.832;10.746;2022-09-09T08:06:45;20.60;99.90
8633;DHT22;4354;49.832;10.746;2022-09-09T08:09:13;20.50;99.90
8633;DHT22;4354;49.832;10.746;2022-09-09T08:11:40;20.60;99.90
8633;DHT22;4354;49.832;10.746;2022-09-09T08:14:08;20.50;99.90
8633;DHT22;4354;49.832;10.746;2022-09-09T08:16:39;20.30;99.90
8633;DHT22;4354;49.832;10.746;2022-09-09T08:19:07;20.30;99.90
8633;DHT22;4354;49.832;10.746;2022-09-09T08:21:36;20.40;99.90
8633;DHT22;4354;49.832;10.746;2022-09-09T08:24:04;20.80;99.90
8633;DHT22;4354;49.832;10.746;2022-09-09T08:26:37;21.50;99.90
8633;DHT22;4354;49.832;10.746;2022-09-09T08:29:05;22.00;99.90
8633;DHT22;4354;49.832;10.746;2022-09-09T08:31:38;22.00;99.90
8633;DHT22;4354;49.832;10.746;2022-09-09T08:34:06;22.00;99.90
8633;DHT22;4354;49.832;10.746;2022-09-09T08:36:39;22.30;99.90
8633;DHT22;4354;49.832;10.746;2022-09-09T08:39:07;22.30;99.90
8633;DHT22;4354;49.832;10.746;2022-09-09T08:50:39;27.50;99.30
8633;DHT22;4354;49.832;10.746;2022-09-09T08:55:56;30.50;87.60
8633;DHT22;4354;49.832;10.746;2022-09-09T08:58:31;32.50;80.80
8633;DHT22;4354;49.832;10.746;2022-09-09T09:11:26;34.70;56.80
8633;DHT22;4354;49.832;10.746;2022-09-09T09:14:02;35.50;56.50
8633;DHT22;4354;49.832;10.746;2022-09-09T09:17:02;34.40;56.20
8633;DHT22;4354;49.832;10.746;2022-09-09T09:19:33;35.30;54.90
8633;DHT22;4354;49.832;10.746;2022-09-09T09:22:34;35.80;54.50
8633;DHT22;4354;49.832;10.746;2022-09-09T09:30:23;34.00;53.60
8633;DHT22;4354;49.832;10.746;2022-09-09T09:33:05;34.20;53.70
8633;DHT22;4354;49.832;10.746;2022-09-09T09:35:35;33.60;54.60
8633;DHT22;4354;49.832;10.746;2022-09-09T09:38:28;32.70;55.00
8633;DHT22;4354;49.832;10.746;2022-09-09T09:41:15;31.20;57.50
8633;DHT22;4354;49.832;10.746;2022-09-09T09:43:53;30.20;59.20
8633;DHT22;4354;49.832;10.746;2022-09-09T09:46:25;30.20;59.80
8633;DHT22;4354;49.832;10.746;2022-09-09T09:49:09;28.60;62.40
8633;DHT22;4354;49.832;10.746;2022-09-09T09:51:36;26.80;64.70
8633;DHT22;4354;49.832;10.746;2022-09-09T09:54:27;26.70;70.10
8633;DHT22;4354;49.832;10.746;2022-09-09T09:56:55;29.70;65.20
8633;DHT22;4354;49.832;10.746;2022-09-09T10:02:23;31.70;57.90
8633;DHT22;4354;49.832;10.746;2022-09-09T10:05:05;30.60;58.60
8633;DHT22;4354;49.832;10.746;2022-09-09T10:07:32;30.40;58.60
8633;DHT22;4354;49.832;10.746;2022-09-09T10:10:00;31.00;56.40
8633;DHT22;4354;49.832;10.746;2022-09-09T10:12:35;32.70;55.80
8633;DHT22;4354;49.832;10.746;2022-09-09T10:15:31;34.40;52.40
8633;DHT22;4354;49.832;10.746;2022-09-09T10:18:20;34.20;52.20
8633;DHT22;4354;49.832;10.746;2022-09-09T10:26:47;34.90;49.90
8633;DHT22;4354;49.832;10.746;2022-09-09T10:32:19;36.10;49.80
8633;DHT22;4354;49.832;10.746;2022-09-09T10:34:50;36.00;48.30
8633;DHT22;4354;49.832;10.746;2022-09-09T10:37:50;37.00;46.00
8633;DHT22;4354;49.832;10.746;2022-09-09T10:40:24;36.20;46.50
8633;DHT22;4354;49.832;10.746;2022-09-09T10:49:03;35.10;49.10
8633;DHT22;4354;49.832;10.746;2022-09-09T10:56:52;29.70;55.00
8633;DHT22;4354;49.832;10.746;2022-09-09T10:59:28;29.80;56.60
8633;DHT22;4354;49.832;10.746;2022-09-09T11:02:10;31.00;55.90
8633;DHT22;4354;49.832;10.746;2022-09-09T11:05:10;32.10;53.40
8633;DHT22;4354;49.832;10.746;2022-09-09T11:07:44;32.70;52.90
8633;DHT22;4354;49.832;10.746;2022-09-09T11:17:20;34.20;50.30
8633;DHT22;4354;49.832;10.746;2022-09-09T11:19:33;34.50;49.80
8633;DHT22;4354;49.832;10.746;2022-09-09T11:30:42;30.30;48.70
8633;DHT22;4354;49.832;10.746;2022-09-09T11:41:34;28.60;52.30
8633;DHT22;4354;49.832;10.746;2022-09-09T11:44:11;28.20;54.60
8633;DHT22;4354;49.832;10.746;2022-09-09T11:46:40;27.90;55.00
8633;DHT22;4354;49.832;10.746;2022-09-09T11:51:53;26.60;56.00
8633;DHT22;4354;49.832;10.746;2022-09-09T11:54:30;26.00;57.80
8633;DHT22;4354;49.832;10.746;2022-09-09T11:56:59;25.00;60.90
8633;DHT22;4354;49.832;10.746;2022-09-09T11:59:33;24.00;59.80
8633;DHT22;4354;49.832;10.746;2022-09-09T12:02:23;23.40;61.40
8633;DHT22;4354;49.832;10.746;2022-09-09T12:05:11;23.30;62.30
8633;DHT22;4354;49.832;10.746;2022-09-09T12:07:45;23.10;62.40
8633;DHT22;4354;49.832;10.746;2022-09-09T12:10:30;23.00;62.80
8633;DHT22;4354;49.832;10.746;2022-09-09T12:13:19;22.40;61.70
8633;DHT22;4354;49.832;10.746;2022-09-09T12:15:48;21.80;63.50
8633;DHT22;4354;49.832;10.746;2022-09-09T12:18:23;21.60;64.30
8633;DHT22;4354;49.832;10.746;2022-09-09T12:23:50;21.00;63.70
8633;DHT22;4354;49.832;10.746;2022-09-09T12:31:35;20.40;66.20
8633;DHT22;4354;49.832;10.746;2022-09-09T12:34:15;20.10;67.30
8633;DHT22;4354;49.832;10.746;2022-09-09T12:36:44;20.10;69.20
8633;DHT22;4354;49.832;10.746;2022-09-09T12:42:25;20.40;77.80
8633;DHT22;4354;49.832;10.746;2022-09-09T12:47:24;20.90;81.70
8633;DHT22;4354;49.832;10.746;2022-09-09T12:49:56;20.90;84.60
8633;DHT22;4354;49.832;10.746;2022-09-09T12:52:32;20.90;86.20
8633;DHT22;4354;49.832;10.746;2022-09-09T12:55:04;20.70;90.80
8633;DHT22;4354;49.832;10.746;2022-09-09T12:57:45;20.20;85.40
8633;DHT22;4354;49.832;10.746;2022-09-09T13:00:17;20.40;90.40
8633;DHT22;4354;49.832;10.746;2022-09-09T13:02:54;20.80;87.70
8633;DHT22;4354;49.832;10.746;2022-09-09T13:05:27;21.50;83.60
8633;DHT22;4354;49.832;10.746;2022-09-09T13:08:03;22.30;82.60
8633;DHT22;4354;49.832;10.746;2022-09-09T13:10:35;23.10;77.70
8633;DHT22;4354;49.832;10.746;2022-09-09T13:13:58;24.20;74.30
8633;DHT22;4354;49.832;10.746;2022-09-09T13:16:30;24.90;74.60
8633;DHT22;4354;49.832;10.746;2022-09-09T13:19:06;25.00;71.90
8633;DHT22;4354;49.832;10.746;2022-09-09T13:21:39;25.20;70.50
8633;DHT22;4354;49.832;10.746;2022-09-09T13:24:25;25.40;71.10
8633;DHT22;4354;49.832;10.746;2022-09-09T13:26:55;25.40;68.20
8633;DHT22;4354;49.832;10.746;2022-09-09T13:29:23;25.20;67.00
8633;DHT22;4354;49.832;10.746;2022-09-09T13:31:50;25.30;64.40
8633;DHT22;4354;49.832;10.746;2022-09-09T13:34:31;25.50;63.60
8633;DHT22;4354;49.832;10.746;2022-09-09T13:37:05;25.40;62.40
8633;DHT22;4354;49.832;10.746;2022-09-09T13:39:36;25.60;61.00
8633;DHT22;4354;49.832;10.746;2022-09-09T13:42:04;25.60;61.70
8633;DHT22;4354;49.832;10.746;2022-09-09T13:44:34;25.70;61.00
8633;DHT22;4354;49.832;10.746;2022-09-09T13:47:19;25.80;61.50
8633;DHT22;4354;49.832;10.746;2022-09-09T13:49:46;25.90;64.10
8633;DHT22;4354;49.832;10.746;2022-09-09T13:52:16;26.20;63.60
8633;DHT22;4354;49.832;10.746;2022-09-09T13:54:51;26.40;63.20
8633;DHT22;4354;49.832;10.746;2022-09-09T13:57:23;26.30;58.60
8633;DHT22;4354;49.832;10.746;2022-09-09T13:59:52;26.10;58.50
8633;DHT22;4354;49.832;10.746;2022-09-09T14:02:31;25.80;58.30
8633;DHT22;4354;49.832;10.746;2022-09-09T14:04:58;25.80;58.30
8633;DHT22;4354;49.832;10.746;2022-09-09T14:07:24;25.60;60.10
8633;DHT22;4354;49.832;10.746;2022-09-09T14:09:51;25.40;59.70
8633;DHT22;4354;49.832;10.746;2022-09-09T14:12:19;24.90;60.20
8633;DHT22;4354;49.832;10.746;2022-09-09T14:14:46;24.70;62.40
8633;DHT22;4354;49.832;10.746;2022-09-09T14:17:13;24.70;62.40
8633;DHT22;4354;49.832;10.746;2022-09-09T14:19:41;24.50;62.50
8633;DHT22;4354;49.832;10.746;2022-09-09T14:22:09;24.40;63.10
8633;DHT22;4354;49.832;10.746;2022-09-09T14:24:36;24.20;63.40
8633;DHT22;4354;49.832;10.746;2022-09-09T14:27:02;23.90;64.80
8633;DHT22;4354;49.832;10.746;2022-09-09T14:29:29;23.70;65.30
8633;DHT22;4354;49.832;10.746;2022-09-09T14:31:56;23.70;66.30
8633;DHT22;4354;49.832;10.746;2022-09-09T14:34:23;23.60;66.10
8633;DHT22;4354;49.832;10.746;2022-09-09T14:36:50;23.50;65.00
8633;DHT22;4354;49.832;10.746;2022-09-09T14:39:17;23.40;66.70
8633;DHT22;4354;49.832;10.746;2022-09-09T14:41:44;23.30;66.50
8633;DHT22;4354;49.832;10.746;2022-09-09T14:44:12;23.10;65.80
8633;DHT22;4354;49.832;10.746;2022-09-09T14:46:39;23.00;67.20
8633;DHT22;4354;49.832;10.746;2022-09-09T14:49:05;22.80;67.30
8633;DHT22;4354;49.832;10.746;2022-09-09T14:51:32;22.70;67.30
8633;DHT22;4354;49.832;10.746;2022-09-09T14:54:00;22.70;68.40
8633;DHT22;4354;49.832;10.746;2022-09-09T14:56:30;22.60;68.60
8633;DHT22;4354;49.832;10.746;2022-09-09T14:58:59;22.50;68.80
8633;DHT22;4354;49.832;10.746;2022-09-09T15:01:28;22.30;70.00
8633;DHT22;4354;49.832;10.746;2022-09-09T15:04:02;22.20;70.50
8633;DHT22;4354;49.832;10.746;2022-09-09T15:06:30;22.10;70.70
8633;DHT22;4354;49.832;10.746;2022-09-09T15:09:00;22.10;68.50
8633;DHT22;4354;49.832;10.746;2022-09-09T15:11:29;22.10;69.60
8633;DHT22;4354;49.832;10.746;2022-09-09T15:14:00;22.10;68.90
8633;DHT22;4354;49.832;10.746;2022-09-09T15:16:28;22.20;68.40
8633;DHT22;4354;49.832;10.746;2022-09-09T15:18:56;22.30;70.00
8633;DHT22;4354;49.832;10.746;2022-09-09T15:21:26;22.50;68.30
8633;DHT22;4354;49.832;10.746;2022-09-09T15:23:53;22.60;68.00
8633;DHT22;4354;49.832;10.746;2022-09-09T15:26:20;22.80;68.50
8633;DHT22;4354;49.832;10.746;2022-09-09T15:28:47;22.80;68.50
8633;DHT22;4354;49.832;10.746;2022-09-09T15:31:21;22.60;67.70
8633;DHT22;4354;49.832;10.746;2022-09-09T15:33:50;22.60;67.90
8633;DHT22;4354;49.832;10.746;2022-09-09T15:36:23;22.60;68.10
8633;DHT22;4354;49.832;10.746;2022-09-09T15:38:50;22.50;68.20
8633;DHT22;4354;49.832;10.746;2022-09-09T15:41:19;22.40;68.50
8633;DHT22;4354;49.832;10.746;2022-09-09T15:43:48;22.30;70.70
8633;DHT22;4354;49.832;10.746;2022-09-09T15:46:32;22.20;69.60
8633;DHT22;4354;49.832;10.746;2022-09-09T15:51:45;22.00;71.60
8633;DHT22;4354;49.832;10.746;2022-09-09T15:54:14;21.90;70.20
8633;DHT22;4354;49.832;10.746;2022-09-09T15:56:45;21.80;71.30
8633;DHT22;4354;49.832;10.746;2022-09-09T15:59:12;21.70;71.70
8633;DHT22;4354;49.832;10.746;2022-09-09T16:01:39;21.60;72.60
8633;DHT22;4354;49.832;10.746;2022-09-09T16:04:06;21.60;73.60
8633;DHT22;4354;49.832;10.746;2022-09-09T16:06:33;21.70;72.00
8633;DHT22;4354;49.832;10.746;2022-09-09T16:09:03;21.70;72.10
8633;DHT22;4354;49.832;10.746;2022-09-09T16:11:36;21.60;71.80
8633;DHT22;4354;49.832;10.746;2022-09-09T16:14:04;21.50;71.80
8633;DHT22;4354;49.832;10.746;2022-09-09T16:16:32;21.30;72.30
8633;DHT22;4354;49.832;10.746;2022-09-09T16:19:04;21.10;73.40
8633;DHT22;4354;49.832;10.746;2022-09-09T16:21:43;20.90;74.70
8633;DHT22;4354;49.832;10.746;2022-09-09T16:24:13;20.70;74.30
8633;DHT22;4354;49.832;10.746;2022-09-09T16:26:43;20.70;75.10
8633;DHT22;4354;49.832;10.746;2022-09-09T16:29:13;20.60;76.20
8633;DHT22;4354;49.832;10.746;2022-09-09T16:31:41;20.60;75.20
8633;DHT22;4354;49.832;10.746;2022-09-09T16:34:09;20.50;76.50
8633;DHT22;4354;49.832;10.746;2022-09-09T16:36:37;20.50;77.50
8633;DHT22;4354;49.832;10.746;2022-09-09T16:39:11;20.00;78.20
8633;DHT22;4354;49.832;10.746;2022-09-09T16:41:39;20.30;79.80
8633;DHT22;4354;49.832;10.746;2022-09-09T16:44:08;20.20;80.40
8633;DHT22;4354;49.832;10.746;2022-09-09T16:46:38;20.10;82.50
8633;DHT22;4354;49.832;10.746;2022-09-09T16:49:08;20.00;84.10
8633;DHT22;4354;49.832;10.746;2022-09-09T16:51:46;20.00;83.60
8633;DHT22;4354;49.832;10.746;2022-09-09T16:54:15;20.00;86.00
8633;DHT22;4354;49.832;10.746;2022-09-09T16:56:45;20.00;85.50
8633;DHT22;4354;49.832;10.746;2022-09-09T16:59:18;20.00;84.90
8633;DHT22;4354;49.832;10.746;2022-09-09T17:01:48;19.90;84.70
8633;DHT22;4354;49.832;10.746;2022-09-09T17:04:24;19.80;85.40
8633;DHT22;4354;49.832;10.746;2022-09-09T17:06:53;19.70;87.90
8633;DHT22;4354;49.832;10.746;2022-09-09T17:09:22;19.60;84.30
8633;DHT22;4354;49.832;10.746;2022-09-09T17:11:50;19.50;84.40
8633;DHT22;4354;49.832;10.746;2022-09-09T17:14:20;19.40;84.20
8633;DHT22;4354;49.832;10.746;2022-09-09T17:16:47;19.30;85.00
8633;DHT22;4354;49.832;10.746;2022-09-09T17:19:17;19.20;83.80
8633;DHT22;4354;49.832;10.746;2022-09-09T17:21:44;19.00;84.60
8633;DHT22;4354;49.832;10.746;2022-09-09T17:24:33;19.00;81.50
8633;DHT22;4354;49.832;10.746;2022-09-09T17:27:00;18.80;80.50
8633;DHT22;4354;49.832;10.746;2022-09-09T17:29:28;18.80;80.60
8633;DHT22;4354;49.832;10.746;2022-09-09T17:31:55;18.80;80.50
8633;DHT22;4354;49.832;10.746;2022-09-09T17:34:23;18.80;80.90
8633;DHT22;4354;49.832;10.746;2022-09-09T17:36:51;18.70;83.30
8633;DHT22;4354;49.832;10.746;2022-09-09T17:39:18;18.60;82.30
8633;DHT22;4354;49.832;10.746;2022-09-09T17:41:45;18.60;82.40
8633;DHT22;4354;49.832;10.746;2022-09-09T17:44:12;18.50;84.70
8633;DHT22;4354;49.832;10.746;2022-09-09T17:46:41;18.30;86.00
8633;DHT22;4354;49.832;10.746;2022-09-09T17:49:13;18.10;87.10
8633;DHT22;4354;49.832;10.746;2022-09-09T17:51:41;17.90;88.60
8633;DHT22;4354;49.832;10.746;2022-09-09T17:54:11;17.70;90.10
8633;DHT22;4354;49.832;10.746;2022-09-09T17:56:40;17.50;91.10
8633;DHT22;4354;49.832;10.746;2022-09-09T17:59:08;17.40;91.70
8633;DHT22;4354;49.832;10.746;2022-09-09T18:01:38;17.20;92.30
8633;DHT22;4354;49.832;10.746;2022-09-09T18:04:08;17.10;93.90
8633;DHT22;4354;49.832;10.746;2022-09-09T18:06:41;16.90;94.90
8633;DHT22;4354;49.832;10.746;2022-09-09T18:09:11;16.80;96.80
8633;DHT22;4354;49.832;10.746;2022-09-09T18:11:45;16.70;98.50
8633;DHT22;4354;49.832;10.746;2022-09-09T18:14:18;16.50;99.90
8633;DHT22;4354;49.832;10.746;2022-09-09T18:16:46;16.40;99.90
8633;DHT22;4354;49.832;10.746;2022-09-09T18:19:15;16.30;99.90
8633;DHT22;4354;49.832;10.746;2022-09-09T18:21:43;16.20;99.90
8633;DHT22;4354;49.832;10.746;2022-09-09T18:24:11;16.10;99.90
8633;DHT22;4354;49.832;10.746;2022-09-09T18:26:40;16.00;99.90
8633;DHT22;4354;49.832;10.746;2022-09-09T18:29:09;15.90;99.90